createdAt,value
2018-02-15T00:00:35.487Z,1007.48
2018-02-15T00:01:35.469Z,1007.45
2018-02-15T00:02:35.440Z,1007.50
2018-02-15T00:03:35.416Z,1007.51
2018-02-15T00:04:35.400Z,1007.52
2018-02-15T00:05:35.369Z,1007.59
2018-02-15T00:06:35.348Z,1007.53
2018-02-15T00:07:35.319Z,1007.58
2018-02-15T00:08:35.300Z,1007.59
2018-02-15T00:09:35.286Z,1007.58
2018-02-15T00:10:35.250Z,1007.57
2018-02-15T00:11:35.224Z,1007.50
2018-02-15T00:12:35.208Z,1007.53
2018-02-15T00:13:35.182Z,1007.51
2018-02-15T00:14:35.166Z,1007.59
2018-02-15T00:15:35.130Z,1007.56
2018-02-15T00:16:35.107Z,1007.54
2018-02-15T00:17:35.086Z,1007.65
2018-02-15T00:18:35.065Z,1007.55
2018-02-15T00:19:35.037Z,1007.53
2018-02-15T00:20:35.015Z,1007.47
2018-02-15T00:21:34.998Z,1007.51
2018-02-15T00:22:34.969Z,1007.51
2018-02-15T00:23:34.947Z,1007.43
2018-02-15T00:24:34.923Z,1007.47
2018-02-15T00:25:34.910Z,1007.51
2018-02-15T00:26:34.878Z,1007.43
2018-02-15T00:27:34.861Z,1007.49
2018-02-15T00:28:34.832Z,1007.41
2018-02-15T00:29:34.858Z,1007.44
2018-02-15T00:30:34.783Z,1007.39
2018-02-15T00:31:34.768Z,1007.47
2018-02-15T00:32:34.737Z,1007.43
2018-02-15T00:33:34.768Z,1007.47
2018-02-15T00:34:34.687Z,1007.44
2018-02-15T00:35:34.663Z,1007.43
2018-02-15T00:36:34.639Z,1007.34
2018-02-15T00:37:34.618Z,1007.32
2018-02-15T00:38:34.595Z,1007.22
2018-02-15T00:39:34.625Z,1007.25
2018-02-15T00:40:34.547Z,1007.25
2018-02-15T00:41:34.527Z,1007.20
2018-02-15T00:42:34.505Z,1007.13
2018-02-15T00:43:34.480Z,1007.10
2018-02-15T00:44:34.455Z,1007.06
2018-02-15T00:45:34.435Z,1006.97
2018-02-15T00:46:34.407Z,1006.93
2018-02-15T00:47:34.388Z,1006.91
2018-02-15T00:48:34.361Z,1006.94
2018-02-15T00:49:34.337Z,1006.99
2018-02-15T00:50:34.312Z,1007.02
2018-02-15T00:51:34.288Z,1007.06
2018-02-15T00:52:34.267Z,1006.95
2018-02-15T00:53:34.243Z,1006.95
2018-02-15T00:54:34.217Z,1006.93
2018-02-15T00:55:34.206Z,1006.91
2018-02-15T00:56:34.172Z,1006.90
2018-02-15T00:57:34.153Z,1006.93
2018-02-15T00:58:34.126Z,1006.96
2018-02-15T00:59:34.102Z,1006.88
2018-02-15T01:00:34.079Z,1006.78
2018-02-15T01:01:34.054Z,1006.68
2018-02-15T01:02:34.032Z,1006.69
2018-02-15T01:03:34.011Z,1006.63
2018-02-15T01:04:33.983Z,1006.59
2018-02-15T01:05:33.968Z,1006.66
2018-02-15T01:06:33.936Z,1006.76
2018-02-15T01:07:33.917Z,1006.88
2018-02-15T01:08:33.892Z,1006.89
2018-02-15T01:09:33.867Z,1006.98
2018-02-15T01:10:33.847Z,1006.92
2018-02-15T01:11:33.826Z,1006.90
2018-02-15T01:12:33.797Z,1006.90
2018-02-15T01:13:33.778Z,1006.89
2018-02-15T01:14:33.799Z,1006.88
2018-02-15T01:15:33.731Z,1006.84
2018-02-15T01:16:33.704Z,1006.80
2018-02-15T01:17:33.684Z,1006.82
2018-02-15T01:18:33.659Z,1006.78
2018-02-15T01:19:33.638Z,1006.80
2018-02-15T01:20:33.622Z,1006.79
2018-02-15T01:21:33.600Z,1006.81
2018-02-15T01:22:33.570Z,1006.76
2018-02-15T01:23:33.545Z,1006.63
2018-02-15T01:24:33.519Z,1006.63
2018-02-15T01:25:33.500Z,1006.62
2018-02-15T01:26:33.471Z,1006.62
2018-02-15T01:27:33.445Z,1006.59
2018-02-15T01:28:33.428Z,1006.52
2018-02-15T01:29:33.409Z,1006.50
2018-02-15T01:30:33.379Z,1006.50
2018-02-15T01:31:33.359Z,1006.50
2018-02-15T01:32:33.336Z,1006.43
2018-02-15T01:33:33.310Z,1006.31
2018-02-15T01:34:33.328Z,1006.38
2018-02-15T01:35:33.263Z,1006.42
2018-02-15T01:36:33.239Z,1006.41
2018-02-15T01:37:33.218Z,1006.45
2018-02-15T01:38:33.195Z,1006.40
2018-02-15T01:39:33.169Z,1006.40
2018-02-15T01:40:33.147Z,1006.43
2018-02-15T01:41:33.129Z,1006.40
2018-02-15T01:42:33.097Z,1006.48
2018-02-15T01:43:33.080Z,1006.43
2018-02-15T01:44:33.059Z,1006.41
2018-02-15T01:45:33.028Z,1006.40
2018-02-15T01:46:33.005Z,1006.41
2018-02-15T01:47:32.984Z,1006.42
2018-02-15T01:48:32.958Z,1006.42
2018-02-15T01:49:32.938Z,1006.47
2018-02-15T01:50:32.919Z,1006.44
2018-02-15T01:51:32.888Z,1006.49
2018-02-15T01:52:32.867Z,1006.53
2018-02-15T01:53:32.845Z,1006.53
2018-02-15T01:54:32.821Z,1006.53
2018-02-15T01:55:32.797Z,1006.57
2018-02-15T01:56:32.778Z,1006.50
2018-02-15T01:57:32.751Z,1006.44
2018-02-15T01:58:32.725Z,1006.45
2018-02-15T01:59:32.720Z,1006.37
2018-02-15T02:00:32.679Z,1006.47
2018-02-15T02:01:32.656Z,1006.35
2018-02-15T02:02:32.637Z,1006.33
2018-02-15T02:03:32.618Z,1006.31
2018-02-15T02:04:32.587Z,1006.29
2018-02-15T02:05:32.567Z,1006.28
2018-02-15T02:06:32.543Z,1006.28
2018-02-15T02:07:32.522Z,1006.18
2018-02-15T02:08:32.500Z,1006.30
2018-02-15T02:09:32.478Z,1006.30
2018-02-15T02:10:32.447Z,1006.33
2018-02-15T02:11:32.426Z,1006.36
2018-02-15T02:12:32.402Z,1006.35
2018-02-15T02:13:32.391Z,1006.35
2018-02-15T02:14:32.358Z,1006.39
2018-02-15T02:15:32.334Z,1006.34
2018-02-15T02:16:32.311Z,1006.33
2018-02-15T02:17:32.288Z,1006.29
2018-02-15T02:18:32.268Z,1006.30
2018-02-15T02:19:32.249Z,1006.27
2018-02-15T02:20:32.218Z,1006.28
2018-02-15T02:21:32.207Z,1006.25
2018-02-15T02:22:32.171Z,1006.25
2018-02-15T02:23:32.152Z,1006.25
2018-02-15T02:24:32.127Z,1006.22
2018-02-15T02:25:32.107Z,1006.18
2018-02-15T02:26:32.082Z,1006.18
2018-02-15T02:27:32.056Z,1006.12
2018-02-15T02:28:32.044Z,1006.12
2018-02-15T02:29:32.018Z,1006.07
2018-02-15T02:30:32.004Z,1006.07
2018-02-15T02:31:31.967Z,1006.05
2018-02-15T02:32:31.943Z,1006.01
2018-02-15T02:33:31.920Z,1006.04
2018-02-15T02:34:31.898Z,1006.01
2018-02-15T02:35:31.875Z,1006.02
2018-02-15T02:36:31.849Z,1006.00
2018-02-15T02:37:31.839Z,1005.95
2018-02-15T02:38:31.851Z,1005.96
2018-02-15T02:39:31.789Z,1005.93
2018-02-15T02:40:31.761Z,1005.90
2018-02-15T02:41:31.737Z,1005.85
2018-02-15T02:42:31.812Z,1005.87
2018-02-15T02:43:31.694Z,1005.84
2018-02-15T02:44:31.804Z,1005.88
2018-02-15T02:45:31.646Z,1005.90
2018-02-15T02:46:31.778Z,1005.86
2018-02-15T02:47:31.602Z,1005.87
2018-02-15T02:48:31.688Z,1005.88
2018-02-15T02:49:31.553Z,1005.90
2018-02-15T02:50:31.533Z,1005.85
2018-02-15T02:51:31.511Z,1005.86
2018-02-15T02:52:31.490Z,1005.82
2018-02-15T02:53:31.463Z,1005.81
2018-02-15T02:54:31.448Z,1005.77
2018-02-15T02:55:31.418Z,1005.81
2018-02-15T02:56:31.397Z,1005.80
2018-02-15T02:57:31.368Z,1005.79
2018-02-15T02:58:31.357Z,1005.81
2018-02-15T02:59:31.329Z,1005.82
2018-02-15T03:00:31.305Z,1005.76
2018-02-15T03:01:31.282Z,1005.75
2018-02-15T03:02:31.258Z,1005.72
2018-02-15T03:03:31.237Z,1005.68
2018-02-15T03:04:31.215Z,1005.67
2018-02-15T03:05:31.188Z,1005.59
2018-02-15T03:06:31.169Z,1005.57
2018-02-15T03:07:31.142Z,1005.49
2018-02-15T03:08:31.145Z,1005.48
2018-02-15T03:09:31.097Z,1005.50
2018-02-15T03:10:31.081Z,1005.47
2018-02-15T03:11:31.049Z,1005.45
2018-02-15T03:12:31.029Z,1005.47
2018-02-15T03:13:31.007Z,1005.51
2018-02-15T03:14:30.979Z,1005.46
2018-02-15T03:15:30.958Z,1005.49
2018-02-15T03:16:30.932Z,1005.52
2018-02-15T03:17:30.910Z,1005.52
2018-02-15T03:18:30.890Z,1005.49
2018-02-15T03:19:30.867Z,1005.44
2018-02-15T03:20:30.839Z,1005.40
2018-02-15T03:21:30.817Z,1005.39
2018-02-15T03:22:30.797Z,1005.40
2018-02-15T03:23:30.777Z,1005.36
2018-02-15T03:24:30.752Z,1005.37
2018-02-15T03:25:30.727Z,1005.42
2018-02-15T03:26:30.709Z,1005.46
2018-02-15T03:27:30.688Z,1005.48
2018-02-15T03:28:30.659Z,1005.48
2018-02-15T03:29:30.637Z,1005.43
2018-02-15T03:30:30.620Z,1005.42
2018-02-15T03:31:30.598Z,1005.38
2018-02-15T03:32:30.571Z,1005.37
2018-02-15T03:33:30.550Z,1005.34
2018-02-15T03:34:30.522Z,1005.36
2018-02-15T03:35:30.501Z,1005.43
2018-02-15T03:36:30.477Z,1005.42
2018-02-15T03:37:30.467Z,1005.41
2018-02-15T03:38:30.427Z,1005.42
2018-02-15T03:39:30.409Z,1005.46
2018-02-15T03:40:30.387Z,1005.41
2018-02-15T03:41:30.359Z,1005.45
2018-02-15T03:42:30.336Z,1005.50
2018-02-15T03:43:30.324Z,1005.49
2018-02-15T03:44:30.292Z,1005.48
2018-02-15T03:45:30.267Z,1005.46
2018-02-15T03:46:30.248Z,1005.51
2018-02-15T03:47:30.228Z,1005.48
2018-02-15T03:48:30.208Z,1005.44
2018-02-15T03:49:30.177Z,1005.49
2018-02-15T03:50:30.154Z,1005.42
2018-02-15T03:51:30.130Z,1005.45
2018-02-15T03:52:30.109Z,1005.41
2018-02-15T03:53:30.089Z,1005.45
2018-02-15T03:54:30.064Z,1005.39
2018-02-15T03:55:30.048Z,1005.43
2018-02-15T03:56:30.019Z,1005.40
2018-02-15T03:57:29.997Z,1005.40
2018-02-15T03:58:29.973Z,1005.35
2018-02-15T03:59:29.949Z,1005.40
2018-02-15T04:00:29.928Z,1005.35
2018-02-15T04:01:29.904Z,1005.34
2018-02-15T04:02:29.888Z,1005.36
2018-02-15T04:03:29.864Z,1005.32
2018-02-15T04:04:29.836Z,1005.39
2018-02-15T04:05:29.816Z,1005.40
2018-02-15T04:06:29.798Z,1005.45
2018-02-15T04:07:29.764Z,1005.42
2018-02-15T04:08:29.743Z,1005.41
2018-02-15T04:09:29.727Z,1005.43
2018-02-15T04:10:29.694Z,1005.41
2018-02-15T04:11:29.676Z,1005.40
2018-02-15T04:12:29.650Z,1005.36
2018-02-15T04:13:29.629Z,1005.34
2018-02-15T04:14:29.606Z,1005.35
2018-02-15T04:15:29.584Z,1005.35
2018-02-15T04:16:29.563Z,1005.30
2018-02-15T04:17:29.537Z,1005.32
2018-02-15T04:18:29.512Z,1005.36
2018-02-15T04:19:29.489Z,1005.35
2018-02-15T04:20:29.467Z,1005.31
2018-02-15T04:21:29.445Z,1005.41
2018-02-15T04:22:29.431Z,1005.39
2018-02-15T04:23:29.397Z,1005.36
2018-02-15T04:24:29.377Z,1005.32
2018-02-15T04:25:29.352Z,1005.30
2018-02-15T04:26:29.332Z,1005.29
2018-02-15T04:27:29.305Z,1005.29
2018-02-15T04:28:29.283Z,1005.29
2018-02-15T04:29:29.261Z,1005.24
2018-02-15T04:30:29.236Z,1005.25
2018-02-15T04:31:29.218Z,1005.26
2018-02-15T04:32:29.200Z,1005.21
2018-02-15T04:33:29.170Z,1005.21
2018-02-15T04:34:29.144Z,1005.28
2018-02-15T04:35:29.124Z,1005.21
2018-02-15T04:36:29.101Z,1005.17
2018-02-15T04:37:29.078Z,1005.17
2018-02-15T04:38:29.054Z,1005.17
2018-02-15T04:39:29.031Z,1005.18
2018-02-15T04:40:29.018Z,1005.20
2018-02-15T04:41:28.987Z,1005.23
2018-02-15T04:42:28.962Z,1005.29
2018-02-15T04:43:28.944Z,1005.22
2018-02-15T04:44:28.917Z,1005.30
2018-02-15T04:45:28.902Z,1005.35
2018-02-15T04:46:28.873Z,1005.31
2018-02-15T04:47:28.859Z,1005.37
2018-02-15T04:48:28.827Z,1005.51
2018-02-15T04:49:28.803Z,1005.37
2018-02-15T04:50:28.780Z,1005.38
2018-02-15T04:51:28.758Z,1005.37
2018-02-15T04:52:28.747Z,1005.34
2018-02-15T04:53:28.716Z,1005.39
2018-02-15T04:54:28.689Z,1005.41
2018-02-15T04:55:28.669Z,1005.46
2018-02-15T04:56:28.649Z,1005.38
2018-02-15T04:57:28.625Z,1005.39
2018-02-15T04:58:28.604Z,1005.41
2018-02-15T04:59:28.572Z,1005.44
2018-02-15T05:00:28.547Z,1005.33
2018-02-15T05:01:28.532Z,1005.34
2018-02-15T05:02:28.502Z,1005.33
2018-02-15T05:03:28.484Z,1005.34
2018-02-15T05:04:28.455Z,1005.33
2018-02-15T05:05:28.436Z,1005.27
2018-02-15T05:06:28.411Z,1005.22
2018-02-15T05:07:28.386Z,1005.28
2018-02-15T05:08:28.365Z,1005.25
2018-02-15T05:09:28.344Z,1005.24
2018-02-15T05:10:28.329Z,1005.16
2018-02-15T05:11:28.303Z,1005.17
2018-02-15T05:12:28.277Z,1005.23
2018-02-15T05:13:28.259Z,1005.20
2018-02-15T05:14:28.225Z,1005.13
2018-02-15T05:15:28.203Z,1005.12
2018-02-15T05:16:28.179Z,1005.12
2018-02-15T05:17:28.160Z,1005.11
2018-02-15T05:18:28.136Z,1005.08
2018-02-15T05:19:28.105Z,1005.13
2018-02-15T05:20:28.086Z,1005.02
2018-02-15T05:21:28.058Z,1005.00
2018-02-15T05:22:28.036Z,1004.99
2018-02-15T05:23:28.018Z,1005.01
2018-02-15T05:24:27.987Z,1005.00
2018-02-15T05:25:27.969Z,1004.93
2018-02-15T05:26:27.939Z,1004.93
2018-02-15T05:27:27.918Z,1004.90
2018-02-15T05:28:27.898Z,1004.90
2018-02-15T05:29:27.877Z,1004.84
2018-02-15T05:30:27.847Z,1004.84
2018-02-15T05:31:27.828Z,1004.78
2018-02-15T05:32:27.807Z,1004.79
2018-02-15T05:33:27.778Z,1004.85
2018-02-15T05:34:27.754Z,1004.81
2018-02-15T05:35:27.738Z,1004.73
2018-02-15T05:36:27.705Z,1004.70
2018-02-15T05:37:27.700Z,1004.71
2018-02-15T05:38:27.658Z,1004.65
2018-02-15T05:39:27.640Z,1004.62
2018-02-15T05:40:27.619Z,1004.71
2018-02-15T05:41:27.598Z,1004.57
2018-02-15T05:42:27.567Z,1004.58
2018-02-15T05:43:27.543Z,1004.63
2018-02-15T05:44:27.519Z,1004.57
2018-02-15T05:45:27.507Z,1004.61
2018-02-15T05:46:27.470Z,1004.60
2018-02-15T05:47:27.445Z,1004.60
2018-02-15T05:48:27.431Z,1004.58
2018-02-15T05:49:27.396Z,1004.57
2018-02-15T05:50:27.373Z,1004.60
2018-02-15T05:51:27.350Z,1004.61
2018-02-15T05:52:27.329Z,1004.64
2018-02-15T05:53:27.308Z,1004.63
2018-02-15T05:54:27.277Z,1004.68
2018-02-15T05:55:27.258Z,1004.67
2018-02-15T05:56:27.228Z,1004.67
2018-02-15T05:57:27.207Z,1004.62
2018-02-15T05:58:27.182Z,1004.62
2018-02-15T05:59:27.156Z,1004.65
2018-02-15T06:00:27.137Z,1004.55
2018-02-15T06:01:27.110Z,1004.53
2018-02-15T06:02:27.086Z,1004.56
2018-02-15T06:03:27.068Z,1004.51
2018-02-15T06:04:27.038Z,1004.48
2018-02-15T06:05:27.012Z,1004.47
2018-02-15T06:06:26.992Z,1004.32
2018-02-15T06:07:26.963Z,1004.47
2018-02-15T06:08:26.940Z,1004.47
2018-02-15T06:09:26.918Z,1004.48
2018-02-15T06:10:26.898Z,1004.49
2018-02-15T06:11:26.880Z,1004.48
2018-02-15T06:12:26.848Z,1004.51
2018-02-15T06:13:26.829Z,1004.49
2018-02-15T06:14:26.800Z,1004.51
2018-02-15T06:15:26.771Z,1004.41
2018-02-15T06:16:26.748Z,1004.57
2018-02-15T06:17:26.725Z,1004.44
2018-02-15T06:18:26.708Z,1004.50
2018-02-15T06:19:26.676Z,1004.48
2018-02-15T06:20:26.655Z,1004.50
2018-02-15T06:21:26.628Z,1004.45
2018-02-15T06:22:26.657Z,1004.47
2018-02-15T06:23:26.581Z,1004.37
2018-02-15T06:24:26.558Z,1004.35
2018-02-15T06:25:26.539Z,1004.31
2018-02-15T06:26:26.562Z,1004.34
2018-02-15T06:27:26.488Z,1004.25
2018-02-15T06:28:26.463Z,1004.23
2018-02-15T06:29:26.435Z,1004.22
2018-02-15T06:30:26.444Z,1004.25
2018-02-15T06:31:26.391Z,1004.20
2018-02-15T06:32:26.466Z,1004.24
2018-02-15T06:33:26.338Z,1004.26
2018-02-15T06:34:26.396Z,1004.29
2018-02-15T06:35:26.294Z,1004.28
2018-02-15T06:36:26.368Z,1004.23
2018-02-15T06:37:26.249Z,1004.27
2018-02-15T06:38:26.224Z,1004.28
2018-02-15T06:39:26.199Z,1004.26
2018-02-15T06:40:26.177Z,1004.29
2018-02-15T06:41:26.149Z,1004.28
2018-02-15T06:42:26.217Z,1004.27
2018-02-15T06:43:26.102Z,1004.19
2018-02-15T06:44:26.075Z,1004.22
2018-02-15T06:45:26.052Z,1004.16
2018-02-15T06:46:26.029Z,1004.11
2018-02-15T06:47:26.002Z,1004.15
2018-02-15T06:48:25.978Z,1004.18
2018-02-15T06:49:25.961Z,1004.17
2018-02-15T06:50:25.927Z,1004.13
2018-02-15T06:51:25.910Z,1004.19
2018-02-15T06:52:25.879Z,1004.14
2018-02-15T06:53:25.857Z,1004.10
2018-02-15T06:54:25.835Z,1004.13
2018-02-15T06:55:25.810Z,1004.12
2018-02-15T06:56:25.788Z,1004.17
2018-02-15T06:57:25.760Z,1004.21
2018-02-15T06:58:25.744Z,1004.16
2018-02-15T06:59:25.718Z,1004.03
2018-02-15T07:00:25.688Z,1004.04
2018-02-15T07:01:25.665Z,1004.02
2018-02-15T07:02:25.640Z,1004.05
2018-02-15T07:03:25.612Z,1003.94
2018-02-15T07:04:25.589Z,1003.92
2018-02-15T07:05:25.600Z,1003.92
2018-02-15T07:06:25.550Z,1003.95
2018-02-15T07:07:25.533Z,1003.99
2018-02-15T07:08:25.494Z,1003.96
2018-02-15T07:09:25.469Z,1003.95
2018-02-15T07:10:25.457Z,1003.88
2018-02-15T07:11:25.418Z,1003.91
2018-02-15T07:12:25.394Z,1003.88
2018-02-15T07:13:25.378Z,1003.89
2018-02-15T07:14:25.348Z,1003.92
2018-02-15T07:15:25.331Z,1003.95
2018-02-15T07:16:25.298Z,1003.99
2018-02-15T07:17:25.280Z,1004.01
2018-02-15T07:18:25.254Z,1003.99
2018-02-15T07:19:25.266Z,1003.93
2018-02-15T07:20:25.202Z,1003.97
2018-02-15T07:21:25.180Z,1003.96
2018-02-15T07:22:25.151Z,1004.00
2018-02-15T07:23:25.130Z,1004.04
2018-02-15T07:24:25.107Z,1004.07
2018-02-15T07:25:25.090Z,1004.04
2018-02-15T07:26:25.063Z,1004.04
2018-02-15T07:27:25.033Z,1004.02
2018-02-15T07:28:25.008Z,1004.06
2018-02-15T07:29:24.994Z,1004.05
2018-02-15T07:30:24.970Z,1004.10
2018-02-15T07:31:24.941Z,1004.12
2018-02-15T07:32:24.919Z,1004.11
2018-02-15T07:33:24.891Z,1004.16
2018-02-15T07:34:24.873Z,1004.15
2018-02-15T07:35:24.843Z,1004.14
2018-02-15T07:36:24.825Z,1004.09
2018-02-15T07:37:24.803Z,1004.13
2018-02-15T07:38:24.768Z,1004.12
2018-02-15T07:39:24.747Z,1004.13
2018-02-15T07:40:24.724Z,1004.16
2018-02-15T07:41:24.700Z,1004.25
2018-02-15T07:42:24.677Z,1004.28
2018-02-15T07:43:24.648Z,1004.21
2018-02-15T07:44:24.628Z,1004.20
2018-02-15T07:45:24.602Z,1004.20
2018-02-15T07:46:24.574Z,1004.20
2018-02-15T07:47:24.572Z,1004.16
2018-02-15T07:48:24.528Z,1004.15
2018-02-15T07:49:24.536Z,1004.15
2018-02-15T07:50:24.488Z,1004.18
2018-02-15T07:51:24.456Z,1004.19
2018-02-15T07:52:24.438Z,1004.17
2018-02-15T07:53:24.411Z,1004.13
2018-02-15T07:54:24.383Z,1004.11
2018-02-15T07:55:24.360Z,1004.14
2018-02-15T07:56:24.337Z,1004.10
2018-02-15T07:57:24.312Z,1004.12
2018-02-15T07:58:24.289Z,1004.14
2018-02-15T07:59:24.266Z,1004.16
2018-02-15T08:00:24.242Z,1004.14
2018-02-15T08:01:24.218Z,1004.13
2018-02-15T08:02:24.194Z,1004.20
2018-02-15T08:03:24.175Z,1004.15
2018-02-15T08:04:24.148Z,1004.08
2018-02-15T08:05:24.125Z,1004.05
2018-02-15T08:06:24.102Z,1004.03
2018-02-15T08:07:24.079Z,1004.05
2018-02-15T08:08:24.056Z,1004.14
2018-02-15T08:09:24.034Z,1004.11
2018-02-15T08:10:24.007Z,1004.17
2018-02-15T08:11:23.980Z,1004.11
2018-02-15T08:12:23.962Z,1004.13
2018-02-15T08:13:23.937Z,1004.08
2018-02-15T08:14:23.910Z,1004.10
2018-02-15T08:15:23.889Z,1004.09
2018-02-15T08:16:23.862Z,1004.08
2018-02-15T08:17:23.841Z,1004.06
2018-02-15T08:18:23.811Z,1004.04
2018-02-15T08:19:23.792Z,1004.04
2018-02-15T08:20:23.817Z,1004.02
2018-02-15T08:21:23.744Z,1004.06
2018-02-15T08:22:23.716Z,1004.03
2018-02-15T08:23:23.697Z,1004.03
2018-02-15T08:24:23.666Z,1004.03
2018-02-15T08:25:23.644Z,1004.00
2018-02-15T08:26:23.618Z,1004.03
2018-02-15T08:27:23.596Z,1004.02
2018-02-15T08:28:23.570Z,1004.02
2018-02-15T08:29:23.609Z,1003.99
2018-02-15T08:30:23.530Z,1003.98
2018-02-15T08:31:23.509Z,1003.98
2018-02-15T08:32:23.478Z,1004.03
2018-02-15T08:33:23.453Z,1003.98
2018-02-15T08:34:23.430Z,1004.01
2018-02-15T08:35:23.510Z,1003.97
2018-02-15T08:36:23.382Z,1003.99
2018-02-15T08:37:23.360Z,1003.99
2018-02-15T08:38:23.334Z,1004.02
2018-02-15T08:39:23.312Z,1004.03
2018-02-15T08:40:23.286Z,1004.01
2018-02-15T08:41:23.272Z,1004.05
2018-02-15T08:42:23.239Z,1004.03
2018-02-15T08:43:23.219Z,1004.02
2018-02-15T08:44:23.190Z,1004.04
2018-02-15T08:45:23.168Z,1004.07
2018-02-15T08:46:23.146Z,1004.03
2018-02-15T08:47:23.128Z,1004.01
2018-02-15T08:48:23.106Z,1003.97
2018-02-15T08:49:23.079Z,1004.02
2018-02-15T08:50:23.055Z,1003.92
2018-02-15T08:51:23.032Z,1003.96
2018-02-15T08:52:23.001Z,1003.97
2018-02-15T08:53:22.982Z,1004.01
2018-02-15T08:54:22.958Z,1003.95
2018-02-15T08:55:22.932Z,1004.00
2018-02-15T08:56:22.913Z,1004.01
2018-02-15T08:57:22.887Z,1004.00
2018-02-15T08:58:22.860Z,1004.05
2018-02-15T08:59:22.843Z,1004.00
2018-02-15T09:00:22.816Z,1004.02
2018-02-15T09:01:22.790Z,1004.01
2018-02-15T09:02:22.764Z,1004.04
2018-02-15T09:03:22.740Z,1004.03
2018-02-15T09:04:22.720Z,1004.01
2018-02-15T09:05:22.702Z,1004.07
2018-02-15T09:06:22.670Z,1004.00
2018-02-15T09:07:22.649Z,1004.05
2018-02-15T09:08:22.624Z,1004.01
2018-02-15T09:09:22.599Z,1003.99
2018-02-15T09:10:22.580Z,1003.94
2018-02-15T09:11:22.559Z,1003.95
2018-02-15T09:12:22.531Z,1003.95
2018-02-15T09:13:22.509Z,1004.00
2018-02-15T09:14:22.486Z,1003.96
2018-02-15T09:15:22.456Z,1003.94
2018-02-15T09:16:22.434Z,1003.96
2018-02-15T09:17:22.410Z,1003.93
2018-02-15T09:18:22.389Z,1003.94
2018-02-15T09:19:22.361Z,1003.98
2018-02-15T09:20:22.337Z,1003.96
2018-02-15T09:21:22.320Z,1003.96
2018-02-15T09:22:22.289Z,1003.94
2018-02-15T09:23:22.264Z,1003.88
2018-02-15T09:24:22.247Z,1003.88
2018-02-15T09:25:22.219Z,1003.88
2018-02-15T09:26:22.211Z,1003.90
2018-02-15T09:27:22.170Z,1003.88
2018-02-15T09:28:22.147Z,1003.89
2018-02-15T09:29:22.133Z,1003.89
2018-02-15T09:30:22.100Z,1003.90
2018-02-15T09:31:22.081Z,1003.87
2018-02-15T09:32:22.051Z,1003.87
2018-02-15T09:33:22.033Z,1003.86
2018-02-15T09:34:22.060Z,1003.88
2018-02-15T09:35:21.986Z,1003.90
2018-02-15T09:36:21.957Z,1003.92
2018-02-15T09:37:21.949Z,1003.99
2018-02-15T09:38:21.963Z,1003.92
2018-02-15T09:39:21.889Z,1003.83
2018-02-15T09:40:21.916Z,1003.86
2018-02-15T09:41:21.840Z,1003.86
2018-02-15T09:42:21.869Z,1003.86
2018-02-15T09:43:21.792Z,1003.85
2018-02-15T09:44:21.769Z,1003.87
2018-02-15T09:45:21.749Z,1003.93
2018-02-15T09:46:21.737Z,1003.81
2018-02-15T09:47:21.699Z,1003.81
2018-02-15T09:48:21.706Z,1003.80
2018-02-15T09:49:21.662Z,1003.83
2018-02-15T09:50:21.634Z,1003.75
2018-02-15T09:51:21.609Z,1003.86
2018-02-15T09:52:21.590Z,1003.87
2018-02-15T09:53:21.567Z,1003.94
2018-02-15T09:54:21.640Z,1003.91
2018-02-15T09:55:21.759Z,1003.91
2018-02-15T09:56:21.495Z,1003.87
2018-02-15T09:57:21.462Z,1003.90
2018-02-15T09:58:21.515Z,1003.91
2018-02-15T09:59:21.415Z,1003.87
2018-02-15T10:00:21.498Z,1003.92
2018-02-15T10:01:21.368Z,1003.95
2018-02-15T10:02:21.448Z,1003.98
2018-02-15T10:03:21.320Z,1003.96
2018-02-15T10:04:21.384Z,1004.00
2018-02-15T10:05:21.277Z,1003.99
2018-02-15T10:06:21.259Z,1004.03
2018-02-15T10:07:21.239Z,1004.04
2018-02-15T10:08:21.208Z,1004.02
2018-02-15T10:09:21.194Z,1004.01
2018-02-15T10:10:21.164Z,1003.98
2018-02-15T10:11:21.136Z,1003.98
2018-02-15T10:12:21.116Z,1003.97
2018-02-15T10:13:21.091Z,1004.00
2018-02-15T10:14:21.068Z,1004.01
2018-02-15T10:15:21.042Z,1004.04
2018-02-15T10:16:21.022Z,1004.06
2018-02-15T10:17:21.001Z,1004.03
2018-02-15T10:18:20.972Z,1003.99
2018-02-15T10:19:20.954Z,1004.03
2018-02-15T10:20:20.929Z,1004.03
2018-02-15T10:21:20.915Z,1004.03
2018-02-15T10:22:20.881Z,1004.04
2018-02-15T10:23:20.856Z,1004.07
2018-02-15T10:24:20.837Z,1004.03
2018-02-15T10:25:20.816Z,1004.07
2018-02-15T10:26:20.798Z,1004.02
2018-02-15T10:27:20.770Z,1004.03
2018-02-15T10:28:20.749Z,1004.01
2018-02-15T10:29:20.749Z,1003.95
2018-02-15T10:30:20.702Z,1004.00
2018-02-15T10:31:20.680Z,1003.98
2018-02-15T10:32:20.649Z,1003.94
2018-02-15T10:33:20.631Z,1003.95
2018-02-15T10:34:20.610Z,1003.93
2018-02-15T10:35:20.588Z,1003.90
2018-02-15T10:36:20.560Z,1003.92
2018-02-15T10:37:20.535Z,1003.88
2018-02-15T10:38:20.515Z,1003.91
2018-02-15T10:39:20.494Z,1003.85
2018-02-15T10:40:20.468Z,1003.90
2018-02-15T10:41:20.446Z,1003.95
2018-02-15T10:42:20.433Z,1003.96
2018-02-15T10:43:20.398Z,1003.98
2018-02-15T10:44:20.378Z,1003.97
2018-02-15T10:45:20.359Z,1003.95
2018-02-15T10:46:20.330Z,1003.95
2018-02-15T10:47:20.310Z,1003.96
2018-02-15T10:48:20.286Z,1003.95
2018-02-15T10:49:20.270Z,1003.94
2018-02-15T10:50:20.240Z,1003.92
2018-02-15T10:51:20.218Z,1003.91
2018-02-15T10:52:20.208Z,1003.91
2018-02-15T10:53:20.180Z,1003.93
2018-02-15T10:54:20.151Z,1003.96
2018-02-15T10:55:20.130Z,1003.96
2018-02-15T10:56:20.107Z,1003.98
2018-02-15T10:57:20.082Z,1004.02
2018-02-15T10:58:20.061Z,1003.99
2018-02-15T10:59:20.042Z,1003.99
2018-02-15T11:00:20.018Z,1003.94
2018-02-15T11:01:20.003Z,1003.98
2018-02-15T11:02:19.976Z,1004.02
2018-02-15T11:03:19.948Z,1003.99
2018-02-15T11:04:19.930Z,1004.00
2018-02-15T11:05:19.902Z,1003.97
2018-02-15T11:06:19.879Z,1003.99
2018-02-15T11:07:19.859Z,1003.98
2018-02-15T11:08:19.836Z,1003.98
2018-02-15T11:09:19.818Z,1004.01
2018-02-15T11:10:19.792Z,1003.98
2018-02-15T11:11:19.769Z,1004.05
2018-02-15T11:12:19.749Z,1003.99
2018-02-15T11:13:19.727Z,1004.03
2018-02-15T11:14:19.707Z,1004.01
2018-02-15T11:15:19.679Z,1004.02
2018-02-15T11:16:19.658Z,1004.02
2018-02-15T11:17:19.634Z,1004.09
2018-02-15T11:18:19.614Z,1004.03
2018-02-15T11:19:19.644Z,1004.09
2018-02-15T11:20:19.576Z,1004.13
2018-02-15T11:21:19.546Z,1004.03
2018-02-15T11:22:19.524Z,1004.10
2018-02-15T11:23:19.502Z,1004.09
2018-02-15T11:24:19.480Z,1004.08
2018-02-15T11:25:19.459Z,1004.09
2018-02-15T11:26:19.437Z,1004.11
2018-02-15T11:27:19.412Z,1004.14
2018-02-15T11:28:19.390Z,1004.15
2018-02-15T11:29:19.427Z,1004.13
2018-02-15T11:30:19.349Z,1004.17
2018-02-15T11:31:19.326Z,1004.19
2018-02-15T11:32:19.303Z,1004.19
2018-02-15T11:33:19.280Z,1004.19
2018-02-15T11:34:19.254Z,1004.20
2018-02-15T11:35:19.240Z,1004.17
2018-02-15T11:36:19.216Z,1004.22
2018-02-15T11:37:19.209Z,1004.23
2018-02-15T11:38:19.170Z,1004.24
2018-02-15T11:39:19.197Z,1004.28
2018-02-15T11:40:19.130Z,1004.29
2018-02-15T11:41:19.101Z,1004.23
2018-02-15T11:42:19.078Z,1004.21
2018-02-15T11:43:19.056Z,1004.22
2018-02-15T11:44:19.043Z,1004.23
2018-02-15T11:45:19.020Z,1004.24
2018-02-15T11:46:18.995Z,1004.25
2018-02-15T11:47:18.969Z,1004.23
2018-02-15T11:48:18.950Z,1004.26
2018-02-15T11:49:18.922Z,1004.28
2018-02-15T11:50:18.949Z,1004.30
2018-02-15T11:51:18.879Z,1004.28
2018-02-15T11:52:18.866Z,1004.34
2018-02-15T11:53:18.838Z,1004.35
2018-02-15T11:54:18.815Z,1004.34
2018-02-15T11:55:18.790Z,1004.35
2018-02-15T11:56:18.769Z,1004.36
2018-02-15T11:57:18.757Z,1004.38
2018-02-15T11:58:18.727Z,1004.35
2018-02-15T11:59:18.708Z,1004.36
2018-02-15T12:00:18.681Z,1004.41
2018-02-15T12:01:18.672Z,1004.39
2018-02-15T12:02:18.643Z,1004.37
2018-02-15T12:03:18.666Z,1004.35
2018-02-15T12:04:18.597Z,1004.34
2018-02-15T12:05:18.576Z,1004.33